Time;durP1;ratioP1;P1;durP2;ratioP2;P2;SDS_P1;SDS_P2;PMS_P1;PMS_P2;Temp;Humidity;BMP_temperature;BMP_pressure;BME280_temperature;BME280_humidity;BME280_pressure;Samples;Min_cycle;Max_cycle;Signal;HPM_P1;HPM_P2
2023/08/26 00:00:28;;;;;;;9.65;6.80;;;23.10;74.40;;;;;;5047174;28;20028;-64
2023/08/26 00:02:54;;;;;;;8.85;6.25;;;23.10;74.60;;;;;;5043834;28;20028;-63
2023/08/26 00:05:20;;;;;;;10.65;6.88;;;23.10;74.60;;;;;;5050011;28;20040;-64
2023/08/26 00:07:46;;;;;;;8.02;6.40;;;23.00;74.30;;;;;;5044213;28;20088;-63
2023/08/26 00:10:11;;;;;;;10.82;7.07;;;23.00;74.50;;;;;;5040256;28;20053;-63
2023/08/26 00:12:37;;;;;;;8.10;6.68;;;23.00;74.50;;;;;;5047127;28;20514;-63
2023/08/26 00:15:04;;;;;;;10.65;7.35;;;23.00;74.50;;;;;;5049222;28;20394;-64
2023/08/26 00:17:29;;;;;;;11.15;6.60;;;23.00;74.40;;;;;;5045772;28;20112;-64
2023/08/26 00:19:55;;;;;;;12.55;6.57;;;22.90;74.50;;;;;;5043647;28;20104;-64
2023/08/26 00:22:21;;;;;;;11.10;6.53;;;22.90;74.50;;;;;;5080395;28;20029;-64
2023/08/26 00:24:47;;;;;;;9.25;6.10;;;22.90;74.60;;;;;;5046111;28;20682;-64
2023/08/26 00:27:13;;;;;;;9.30;5.97;;;22.90;74.60;;;;;;5047532;28;20112;-65
2023/08/26 00:29:40;;;;;;;7.22;5.40;;;22.90;74.40;;;;;;5047127;28;20040;-64
2023/08/26 00:32:06;;;;;;;8.75;5.78;;;22.90;74.40;;;;;;4987965;28;20128;-63
2023/08/26 00:34:32;;;;;;;11.02;6.25;;;22.90;74.40;;;;;;5035531;28;20128;-63
2023/08/26 00:36:58;;;;;;;7.50;5.60;;;22.90;74.60;;;;;;5040071;28;20116;-63
2023/08/26 00:39:23;;;;;;;8.05;6.13;;;22.90;74.80;;;;;;5038465;28;20471;-63
2023/08/26 00:41:49;;;;;;;8.85;5.85;;;22.90;74.80;;;;;;5048974;28;20040;-63
2023/08/26 00:44:14;;;;;;;9.02;6.28;;;22.90;74.80;;;;;;5038774;28;20029;-63
2023/08/26 00:46:40;;;;;;;8.30;6.03;;;22.90;74.80;;;;;;5050815;28;20094;-63
2023/08/26 00:49:07;;;;;;;7.40;5.57;;;22.90;74.70;;;;;;5047018;28;20044;-64
2023/08/26 00:51:33;;;;;;;9.00;5.90;;;22.90;74.60;;;;;;5042790;28;20051;-64
2023/08/26 00:53:59;;;;;;;8.50;6.07;;;22.90;74.60;;;;;;5048418;28;20069;-64
2023/08/26 00:56:25;;;;;;;8.73;6.40;;;23.00;74.60;;;;;;5045272;28;20039;-64
2023/08/26 00:58:50;;;;;;;8.63;5.80;;;22.90;74.50;;;;;;5044452;28;20037;-64
2023/08/26 01:01:17;;;;;;;8.25;5.65;;;22.90;74.40;;;;;;5052715;28;20108;-64
2023/08/26 01:03:43;;;;;;;6.47;5.78;;;22.90;74.60;;;;;;5050534;28;20060;-64
2023/08/26 01:06:08;;;;;;;11.70;6.00;;;22.90;74.80;;;;;;5051595;28;20116;-64
2023/08/26 01:08:34;;;;;;;8.52;5.18;;;23.00;74.70;;;;;;5047895;28;20677;-63
2023/08/26 01:11:15;;;;;;;7.28;5.68;;;22.90;74.60;;;;;;5046108;28;20061;-64
2023/08/26 01:14:08;;;;;;;7.63;5.40;;;22.90;74.60;;;;;;5047753;28;20043;-63
2023/08/26 01:16:35;;;;;;;9.90;5.78;;;22.90;75.00;;;;;;5046455;28;20072;-63
2023/08/26 01:19:02;;;;;;;10.68;4.68;;;22.90;74.50;;;;;;5041212;28;20588;-64
2023/08/26 01:21:35;;;;;;;7.88;4.60;;;22.90;74.60;;;;;;5047006;28;20112;-64
2023/08/26 01:24:01;;;;;;;7.95;4.80;;;22.90;74.70;;;;;;5049326;28;20040;-64
2023/08/26 01:26:27;;;;;;;7.38;5.13;;;22.90;74.40;;;;;;5048516;28;20032;-64
2023/08/26 01:28:52;;;;;;;15.93;4.72;;;22.90;74.40;;;;;;5049558;28;20028;-64
2023/08/26 01:31:21;;;;;;;6.25;4.80;;;22.90;74.40;;;;;;5048555;28;20017;-64
2023/08/26 01:34:12;;;;;;;7.30;4.45;;;22.90;74.40;;;;;;5048498;28;20143;-64
2023/08/26 01:36:43;;;;;;;6.68;4.35;;;22.90;74.90;;;;;;5048249;28;20045;-64
2023/08/26 01:39:14;;;;;;;10.32;4.97;;;22.90;74.20;;;;;;5053468;28;20501;-63
2023/08/26 01:41:50;;;;;;;6.72;4.40;;;22.80;74.10;;;;;;5049269;28;20048;-63
2023/08/26 01:44:17;;;;;;;11.00;4.85;;;22.80;74.40;;;;;;5049478;28;20040;-65
2023/08/26 01:46:45;;;;;;;5.13;4.50;;;22.80;74.20;;;;;;5049349;28;20025;-64
2023/08/26 01:49:11;;;;;;;8.02;4.63;;;22.70;74.20;;;;;;5048011;28;20028;-65
2023/08/26 01:51:37;;;;;;;8.50;4.40;;;22.70;74.30;;;;;;5048076;28;20124;-64
2023/08/26 01:54:06;;;;;;;9.48;4.72;;;22.70;74.70;;;;;;5048988;28;20044;-63
2023/08/26 01:56:32;;;;;;;8.98;4.80;;;22.60;75.10;;;;;;5048599;28;20040;-64
2023/08/26 01:58:58;;;;;;;6.57;4.90;;;22.60;75.20;;;;;;5053298;28;20039;-64
2023/08/26 02:01:23;;;;;;;6.30;4.80;;;22.60;75.30;;;;;;5052198;28;20472;-62
2023/08/26 02:03:49;;;;;;;10.32;4.55;;;22.60;75.40;;;;;;5049076;28;20033;-64
2023/08/26 02:06:15;;;;;;;7.28;4.65;;;22.60;75.50;;;;;;5046884;28;20020;-64
2023/08/26 02:08:41;;;;;;;8.10;5.07;;;22.60;75.60;;;;;;5047524;28;20467;-64
2023/08/26 02:11:07;;;;;;;8.23;4.93;;;22.60;75.70;;;;;;5045811;28;20705;-64
2023/08/26 02:13:32;;;;;;;6.32;4.97;;;22.60;75.70;;;;;;5051070;28;20192;-63
2023/08/26 02:15:58;;;;;;;7.35;5.57;;;22.60;75.80;;;;;;5050683;28;20040;-62
2023/08/26 02:18:24;;;;;;;7.63;4.88;;;22.60;75.90;;;;;;5045714;28;20033;-62
2023/08/26 02:20:50;;;;;;;10.25;5.07;;;22.70;76.00;;;;;;5046193;28;20032;-62
2023/08/26 02:23:15;;;;;;;7.32;5.00;;;22.60;76.00;;;;;;5043049;28;20432;-62
2023/08/26 02:25:42;;;;;;;6.78;4.90;;;22.70;76.00;;;;;;5044792;28;20033;-62
2023/08/26 02:28:08;;;;;;;8.60;4.50;;;22.70;75.80;;;;;;5048698;28;20095;-63
2023/08/26 02:30:34;;;;;;;7.53;4.65;;;22.70;75.50;;;;;;4958267;28;20037;-63
2023/08/26 02:33:02;;;;;;;8.05;4.45;;;22.70;75.40;;;;;;5049110;28;20036;-62
2023/08/26 02:35:29;;;;;;;6.20;4.82;;;22.70;75.20;;;;;;5050834;28;20412;-63
2023/08/26 02:37:55;;;;;;;8.40;4.93;;;22.70;75.10;;;;;;5045690;28;20033;-62
2023/08/26 02:40:20;;;;;;;8.00;4.55;;;22.70;75.30;;;;;;5045525;28;20475;-63
2023/08/26 02:42:48;;;;;;;6.68;4.55;;;22.70;75.20;;;;;;5040996;28;20029;-63
2023/08/26 02:45:13;;;;;;;5.88;4.25;;;22.70;75.40;;;;;;5045708;28;20059;-63
2023/08/26 02:47:39;;;;;;;7.43;4.57;;;22.70;75.00;;;;;;5054018;28;20056;-63
2023/08/26 02:50:05;;;;;;;9.23;4.57;;;22.70;75.10;;;;;;5043441;28;20108;-63
2023/08/26 02:52:31;;;;;;;7.15;4.32;;;22.70;74.70;;;;;;5045478;28;20094;-63
2023/08/26 02:54:56;;;;;;;7.07;4.30;;;22.70;74.60;;;;;;5050639;28;20032;-63
2023/08/26 02:57:22;;;;;;;7.00;4.40;;;22.70;74.70;;;;;;5038917;28;20037;-63
2023/08/26 02:59:49;;;;;;;7.15;4.38;;;22.70;74.70;;;;;;5050058;28;20359;-64
2023/08/26 03:02:15;;;;;;;6.45;3.95;;;22.70;74.70;;;;;;5046370;28;20013;-63
2023/08/26 03:04:44;;;;;;;6.65;4.63;;;22.60;74.50;;;;;;5037933;28;20017;-63
2023/08/26 03:07:10;;;;;;;9.38;4.45;;;22.60;74.70;;;;;;5047287;28;20075;-63
2023/08/26 03:09:36;;;;;;;10.85;4.78;;;22.60;74.80;;;;;;5072591;28;20052;-63
2023/08/26 03:12:01;;;;;;;7.20;4.50;;;22.60;74.90;;;;;;5046607;28;20582;-63
2023/08/26 03:14:27;;;;;;;7.70;4.38;;;22.60;75.00;;;;;;5041451;28;20026;-63
2023/08/26 03:16:52;;;;;;;6.88;4.35;;;22.60;75.10;;;;;;5046713;28;20069;-63
2023/08/26 03:19:18;;;;;;;7.35;3.97;;;22.60;75.10;;;;;;5050294;28;20029;-63
2023/08/26 03:21:44;;;;;;;5.75;4.28;;;22.60;75.30;;;;;;5052719;28;20094;-63
2023/08/26 03:24:11;;;;;;;6.88;4.50;;;22.60;75.30;;;;;;5046478;28;20503;-63
2023/08/26 03:26:37;;;;;;;5.80;4.22;;;22.60;75.20;;;;;;5048555;28;20028;-63
2023/08/26 03:29:03;;;;;;;4.85;4.10;;;22.60;75.50;;;;;;5051076;28;20024;-64
2023/08/26 03:31:28;;;;;;;9.27;4.28;;;22.60;75.50;;;;;;4975838;28;20060;-62
2023/08/26 03:33:54;;;;;;;7.57;4.10;;;22.60;75.50;;;;;;5050253;28;20020;-63
2023/08/26 03:36:20;;;;;;;5.53;4.18;;;22.60;75.50;;;;;;5039724;28;20393;-63
2023/08/26 03:38:45;;;;;;;6.13;3.65;;;22.60;75.60;;;;;;5046719;28;20048;-63
2023/08/26 03:41:12;;;;;;;3.35;2.70;;;22.50;75.50;;;;;;5043649;28;20045;-63
2023/08/26 03:43:38;;;;;;;5.10;2.88;;;22.50;75.20;;;;;;5050400;28;20023;-62
2023/08/26 03:46:04;;;;;;;4.07;2.67;;;22.50;75.40;;;;;;5046728;28;20025;-63
2023/08/26 03:48:30;;;;;;;4.38;2.83;;;22.50;75.50;;;;;;5045850;28;20025;-64
2023/08/26 03:50:57;;;;;;;3.10;2.83;;;22.50;76.20;;;;;;5046117;28;20059;-64
2023/08/26 03:53:23;;;;;;;3.38;2.63;;;22.50;75.70;;;;;;5051576;28;20052;-64
2023/08/26 03:55:49;;;;;;;4.72;2.83;;;22.50;75.80;;;;;;5046758;28;20068;-63
2023/08/26 03:58:15;;;;;;;3.25;2.58;;;22.50;75.90;;;;;;5047354;28;20056;-63
2023/08/26 04:00:41;;;;;;;2.53;2.28;;;22.50;76.00;;;;;;5046641;28;20705;-63
2023/08/26 04:03:07;;;;;;;7.07;2.10;;;22.50;75.70;;;;;;5043737;28;20120;-62
2023/08/26 04:05:33;;;;;;;3.00;1.98;;;22.50;75.40;;;;;;5046051;28;20039;-62
2023/08/26 04:08:02;;;;;;;2.42;2.17;;;22.50;75.40;;;;;;5043392;28;20025;-62
2023/08/26 04:10:28;;;;;;;3.92;2.25;;;22.50;75.90;;;;;;5039664;28;20438;-63
2023/08/26 04:12:57;;;;;;;4.13;2.67;;;22.50;75.90;;;;;;5047112;28;20040;-63
2023/08/26 04:15:22;;;;;;;8.45;2.45;;;22.50;75.90;;;;;;5044936;28;20108;-63
2023/08/26 04:17:48;;;;;;;3.17;2.40;;;22.50;75.90;;;;;;5047610;28;20048;-63
2023/08/26 04:20:14;;;;;;;3.17;2.30;;;22.50;75.70;;;;;;5047909;28;20047;-63
2023/08/26 04:22:39;;;;;;;2.58;2.22;;;22.50;75.70;;;;;;5044816;28;20434;-63
2023/08/26 04:25:06;;;;;;;2.95;2.13;;;22.50;75.70;;;;;;5043825;28;20430;-63
2023/08/26 04:27:34;;;;;;;2.80;1.90;;;22.50;75.80;;;;;;5041325;28;20482;-64
2023/08/26 04:30:03;;;;;;;3.35;2.45;;;22.50;75.80;;;;;;5042850;28;20045;-64
2023/08/26 04:32:28;;;;;;;2.40;2.20;;;22.40;76.00;;;;;;5044659;28;20056;-64
2023/08/26 04:34:54;;;;;;;4.13;1.90;;;22.40;76.00;;;;;;5044523;28;20060;-64
2023/08/26 04:37:22;;;;;;;4.53;2.00;;;22.40;76.00;;;;;;5048291;28;20041;-64
2023/08/26 04:39:50;;;;;;;4.25;2.38;;;22.40;75.90;;;;;;5048524;28;20511;-64
2023/08/26 04:42:15;;;;;;;3.90;2.20;;;22.30;75.70;;;;;;5053288;28;20052;-64
2023/08/26 04:44:41;;;;;;;2.92;2.08;;;22.30;75.70;;;;;;5050923;28;20516;-63
2023/08/26 04:47:07;;;;;;;2.60;1.95;;;22.30;76.60;;;;;;5046954;28;20017;-62
2023/08/26 04:49:32;;;;;;;5.88;2.03;;;22.30;75.90;;;;;;5045156;28;20025;-63
2023/08/26 04:51:59;;;;;;;3.10;2.28;;;22.20;76.10;;;;;;5053358;28;20533;-63
2023/08/26 04:54:24;;;;;;;3.95;2.70;;;22.20;76.30;;;;;;5052031;28;20460;-63
2023/08/26 04:56:50;;;;;;;4.68;2.10;;;22.20;76.30;;;;;;5051839;28;20115;-63
2023/08/26 04:59:16;;;;;;;3.88;2.30;;;22.20;76.40;;;;;;5048589;28;20021;-64
2023/08/26 05:01:42;;;;;;;3.60;2.10;;;22.20;76.20;;;;;;5044346;28;20027;-63
2023/08/26 05:04:07;;;;;;;4.43;2.35;;;22.20;76.40;;;;;;5050441;28;20033;-63
2023/08/26 05:06:33;;;;;;;3.97;2.20;;;22.20;76.40;;;;;;5046314;28;20037;-63
2023/08/26 05:08:59;;;;;;;4.53;2.00;;;22.20;76.40;;;;;;5049231;28;20033;-63
2023/08/26 05:11:24;;;;;;;8.20;1.98;;;22.20;76.60;;;;;;5053157;28;20112;-63
2023/08/26 05:13:51;;;;;;;3.40;2.17;;;22.20;76.70;;;;;;5052898;28;20486;-63
2023/08/26 05:16:17;;;;;;;4.05;2.13;;;22.20;76.90;;;;;;5053955;28;20900;-63
2023/08/26 05:18:42;;;;;;;4.00;2.20;;;22.20;77.10;;;;;;5052940;28;20033;-62
2023/08/26 05:21:08;;;;;;;4.25;2.33;;;22.20;77.20;;;;;;5047640;28;20032;-63
2023/08/26 05:23:33;;;;;;;2.83;2.17;;;22.20;77.20;;;;;;5051570;28;20075;-63
2023/08/26 05:25:59;;;;;;;6.22;2.50;;;22.20;77.30;;;;;;5043842;28;20097;-62
2023/08/26 05:28:25;;;;;;;3.75;1.88;;;22.30;77.40;;;;;;5047547;28;20057;-62
2023/08/26 05:30:51;;;;;;;3.92;2.53;;;22.20;77.30;;;;;;5046488;28;20025;-64
2023/08/26 05:33:16;;;;;;;5.07;2.30;;;22.30;77.30;;;;;;5045398;28;20112;-63
2023/08/26 05:35:43;;;;;;;2.22;1.90;;;22.30;77.30;;;;;;5047138;28;20028;-63
2023/08/26 05:38:08;;;;;;;9.40;2.75;;;22.30;77.40;;;;;;5051989;28;20445;-62
2023/08/26 05:40:34;;;;;;;5.95;2.30;;;22.30;77.30;;;;;;5053773;28;20104;-63
2023/08/26 05:43:00;;;;;;;3.50;2.13;;;22.30;77.30;;;;;;5045152;28;20388;-63
2023/08/26 05:45:26;;;;;;;3.35;2.40;;;22.40;77.40;;;;;;5050238;28;20052;-63
2023/08/26 05:47:52;;;;;;;4.50;1.92;;;22.40;77.50;;;;;;5046750;28;20024;-63
2023/08/26 05:50:18;;;;;;;3.85;1.92;;;22.40;77.40;;;;;;5047605;28;20087;-64
2023/08/26 05:52:44;;;;;;;4.82;2.10;;;22.40;77.30;;;;;;5042751;28;20024;-63
2023/08/26 05:55:10;;;;;;;4.18;2.30;;;22.50;77.30;;;;;;5045719;28;20360;-64
2023/08/26 05:57:37;;;;;;;8.73;2.33;;;22.40;77.20;;;;;;5044853;28;20059;-63
2023/08/26 06:00:08;;;;;;;6.85;2.25;;;22.50;77.20;;;;;;5048531;28;20017;-63
2023/08/26 06:02:34;;;;;;;2.47;2.10;;;22.50;77.20;;;;;;5044933;28;20025;-64
2023/08/26 06:05:00;;;;;;;3.13;2.00;;;22.50;77.00;;;;;;5042820;28;20033;-63
2023/08/26 06:07:26;;;;;;;3.05;2.40;;;22.60;76.90;;;;;;5044425;28;20054;-64
2023/08/26 06:09:52;;;;;;;5.15;2.40;;;22.60;77.00;;;;;;5045779;28;20103;-63
2023/08/26 06:12:17;;;;;;;4.18;2.53;;;22.60;77.10;;;;;;5045356;28;20036;-63
2023/08/26 06:14:43;;;;;;;2.92;2.22;;;22.60;77.40;;;;;;5040442;28;20032;-63
2023/08/26 06:17:09;;;;;;;4.25;2.28;;;22.70;77.40;;;;;;5046629;28;20037;-63
2023/08/26 06:19:34;;;;;;;7.28;2.10;;;22.60;77.30;;;;;;5049731;28;20078;-63
2023/08/26 06:22:00;;;;;;;2.42;2.20;;;22.70;77.60;;;;;;5047088;28;20025;-63
2023/08/26 06:24:27;;;;;;;2.75;1.92;;;22.70;77.50;;;;;;5044875;28;20029;-63
2023/08/26 06:26:52;;;;;;;6.60;1.95;;;22.80;77.90;;;;;;5043881;28;20021;-63
2023/08/26 06:29:19;;;;;;;4.93;2.08;;;22.80;77.30;;;;;;5047233;28;20403;-63
2023/08/26 06:31:45;;;;;;;3.03;2.15;;;22.90;76.90;;;;;;4947220;28;20373;-63
2023/08/26 06:34:11;;;;;;;5.47;1.92;;;23.00;76.80;;;;;;5046061;28;20116;-63
2023/08/26 06:36:36;;;;;;;4.30;2.08;;;23.10;76.50;;;;;;5044455;28;20041;-63
2023/08/26 06:39:03;;;;;;;6.35;2.40;;;23.20;76.30;;;;;;5042574;28;20025;-63
2023/08/26 06:41:30;;;;;;;3.03;1.60;;;23.20;76.00;;;;;;5047766;28;20105;-63
2023/08/26 06:43:55;;;;;;;5.93;2.00;;;23.30;75.10;;;;;;5043612;28;20041;-63
2023/08/26 06:46:21;;;;;;;8.48;3.72;;;23.30;74.50;;;;;;5044669;28;20040;-63
2023/08/26 06:48:47;;;;;;;3.45;2.10;;;23.40;74.30;;;;;;5040873;28;20113;-63
2023/08/26 06:51:12;;;;;;;7.20;2.50;;;23.40;73.90;;;;;;5039310;28;20029;-63
2023/08/26 06:53:38;;;;;;;5.22;2.13;;;23.50;73.60;;;;;;5042530;28;20092;-62
2023/08/26 06:56:03;;;;;;;3.45;1.90;;;23.50;73.90;;;;;;5050644;28;20033;-63
2023/08/26 06:58:29;;;;;;;3.30;1.98;;;23.60;74.10;;;;;;5047987;28;20044;-64
2023/08/26 07:00:55;;;;;;;7.13;2.40;;;23.70;73.80;;;;;;5041874;28;20029;-64
2023/08/26 07:03:21;;;;;;;4.43;2.20;;;23.80;72.70;;;;;;5049724;28;20029;-64
2023/08/26 07:05:47;;;;;;;2.60;2.00;;;23.90;72.80;;;;;;5046765;28;20061;-63
2023/08/26 07:08:14;;;;;;;19.17;2.90;;;24.00;73.00;;;;;;5049125;28;20024;-64
2023/08/26 07:10:40;;;;;;;7.00;2.53;;;24.20;72.30;;;;;;5047363;28;20056;-62
2023/08/26 07:13:06;;;;;;;8.35;2.40;;;24.30;71.10;;;;;;5038665;28;20119;-63
2023/08/26 07:15:32;;;;;;;4.15;2.30;;;24.50;70.80;;;;;;5049776;28;20104;-63
2023/08/26 07:17:57;;;;;;;6.95;2.75;;;24.50;69.80;;;;;;5045958;28;20132;-63
2023/08/26 07:20:24;;;;;;;8.88;2.88;;;24.50;68.30;;;;;;5046745;28;20372;-62
2023/08/26 07:22:50;;;;;;;7.15;2.33;;;24.50;68.30;;;;;;5044124;28;20488;-63
2023/08/26 07:25:17;;;;;;;7.40;3.10;;;24.50;68.10;;;;;;5049011;28;20071;-62
2023/08/26 07:27:45;;;;;;;3.78;2.35;;;24.50;68.30;;;;;;5047214;28;20025;-64
2023/08/26 07:30:11;;;;;;;8.60;2.25;;;24.50;68.20;;;;;;4941297;28;20036;-63
2023/08/26 07:32:37;;;;;;;4.82;2.28;;;24.50;68.90;;;;;;5043651;28;20033;-64
2023/08/26 07:35:04;;;;;;;4.82;2.22;;;24.50;69.40;;;;;;5045486;28;20468;-64
2023/08/26 07:37:29;;;;;;;2.75;2.10;;;24.50;68.90;;;;;;5052230;28;20044;-64
2023/08/26 07:39:55;;;;;;;6.55;2.38;;;24.50;68.50;;;;;;5048440;28;20559;-62
2023/08/26 07:42:21;;;;;;;4.25;2.10;;;24.50;68.10;;;;;;5043468;28;20379;-63
2023/08/26 07:44:46;;;;;;;8.00;2.30;;;24.50;68.50;;;;;;5047284;28;20499;-64
2023/08/26 07:47:12;;;;;;;3.63;2.10;;;24.50;68.30;;;;;;5048473;28;20039;-63
2023/08/26 07:49:37;;;;;;;4.93;2.38;;;24.50;68.30;;;;;;5042242;28;20032;-63
2023/08/26 07:52:03;;;;;;;13.90;2.38;;;24.50;68.40;;;;;;5042367;28;20444;-63
2023/08/26 07:54:29;;;;;;;5.05;2.38;;;24.60;67.90;;;;;;5046061;28;20375;-64
2023/08/26 07:56:55;;;;;;;8.50;2.10;;;24.60;67.70;;;;;;5043057;28;20072;-64
2023/08/26 07:59:20;;;;;;;9.23;2.40;;;24.50;67.30;;;;;;5044606;28;20116;-63
2023/08/26 08:01:47;;;;;;;6.80;2.80;;;24.60;67.00;;;;;;5045012;28;20083;-63
2023/08/26 08:04:13;;;;;;;8.32;3.55;;;24.50;67.30;;;;;;5045691;28;20025;-63
2023/08/26 08:06:39;;;;;;;8.55;2.45;;;24.50;66.80;;;;;;5046642;28;20025;-63
2023/08/26 08:09:05;;;;;;;5.95;2.42;;;24.50;66.70;;;;;;5043045;28;20039;-63
2023/08/26 08:11:30;;;;;;;7.68;2.70;;;24.50;66.70;;;;;;5042831;28;20037;-64
2023/08/26 08:13:56;;;;;;;8.43;2.45;;;24.50;67.00;;;;;;5039958;28;20037;-63
2023/08/26 08:16:22;;;;;;;4.70;1.92;;;24.40;67.60;;;;;;5039572;28;20045;-65
2023/08/26 08:18:47;;;;;;;5.13;2.60;;;24.50;68.20;;;;;;5037475;28;20029;-62
2023/08/26 08:21:13;;;;;;;6.25;2.53;;;24.60;68.50;;;;;;5040289;28;20030;-63
2023/08/26 08:23:41;;;;;;;5.32;2.28;;;24.80;68.40;;;;;;5041680;28;20083;-63
2023/08/26 08:26:07;;;;;;;7.07;2.60;;;25.00;68.10;;;;;;5041850;28;20036;-63
2023/08/26 08:28:32;;;;;;;8.70;3.20;;;25.10;67.40;;;;;;5042158;28;20029;-63
2023/08/26 08:30:58;;;;;;;9.80;2.88;;;25.20;66.30;;;;;;5044063;28;20025;-63
2023/08/26 08:33:24;;;;;;;6.75;2.60;;;25.30;66.20;;;;;;5040321;28;20021;-64
2023/08/26 08:35:50;;;;;;;4.10;2.28;;;25.30;65.70;;;;;;5039088;28;20546;-63
2023/08/26 08:38:16;;;;;;;4.68;2.35;;;25.30;65.30;;;;;;5042380;28;20036;-63
2023/08/26 08:40:42;;;;;;;4.43;2.25;;;25.30;65.10;;;;;;5038194;28;20029;-62
2023/08/26 08:43:08;;;;;;;4.40;2.35;;;25.40;65.10;;;;;;5048964;28;20434;-63
2023/08/26 08:45:34;;;;;;;3.97;2.20;;;25.40;64.50;;;;;;5048177;28;20503;-63
2023/08/26 08:48:00;;;;;;;4.97;2.08;;;25.40;64.70;;;;;;5045675;28;20589;-64
2023/08/26 08:50:26;;;;;;;3.92;1.90;;;25.50;65.80;;;;;;5045385;28;20107;-64
2023/08/26 08:52:58;;;;;;;5.80;2.05;;;25.60;66.20;;;;;;5040957;28;20118;-64
2023/08/26 08:55:24;;;;;;;5.22;2.30;;;25.80;65.90;;;;;;5046592;28;20040;-63
2023/08/26 08:57:52;;;;;;;5.13;2.17;;;26.00;65.90;;;;;;5050789;28;20045;-62
2023/08/26 09:00:19;;;;;;;5.95;2.38;;;26.20;64.90;;;;;;5051046;28;20028;-63
2023/08/26 09:02:46;;;;;;;7.30;2.65;;;26.40;63.60;;;;;;5043544;28;20078;-63
2023/08/26 09:05:13;;;;;;;12.27;2.95;;;26.60;62.60;;;;;;5043779;28;20044;-63
2023/08/26 09:07:40;;;;;;;7.45;2.47;;;26.70;61.60;;;;;;5048112;28;20377;-62
2023/08/26 09:10:09;;;;;;;4.80;2.17;;;26.80;61.20;;;;;;5046758;28;20041;-62
2023/08/26 09:12:34;;;;;;;8.75;2.10;;;26.90;61.40;;;;;;5044535;28;20376;-64
2023/08/26 09:15:01;;;;;;;5.13;2.22;;;27.00;61.80;;;;;;5048346;28;20036;-63
2023/08/26 09:17:28;;;;;;;5.43;2.42;;;27.20;61.60;;;;;;5044450;28;20848;-64
2023/08/26 09:20:02;;;;;;;10.57;2.72;;;27.30;61.00;;;;;;5044940;28;20033;-63
2023/08/26 09:22:29;;;;;;;5.65;2.05;;;27.40;60.20;;;;;;5044266;28;20041;-62
2023/08/26 09:24:56;;;;;;;4.85;2.63;;;27.50;60.00;;;;;;5049808;28;20033;-63
2023/08/26 09:27:22;;;;;;;6.13;2.22;;;27.60;59.00;;;;;;5058539;28;20503;-62
2023/08/26 09:29:51;;;;;;;7.53;2.70;;;27.60;59.20;;;;;;5034196;28;20033;-64
2023/08/26 09:32:34;;;;;;;7.45;2.50;;;27.60;59.40;;;;;;5048438;28;20040;-63
2023/08/26 09:35:13;;;;;;;3.40;1.92;;;27.60;58.10;;;;;;5044398;28;20493;-62
2023/08/26 09:37:42;;;;;;;9.40;2.85;;;27.60;58.00;;;;;;5049557;28;21775;-64
2023/08/26 09:40:15;;;;;;;10.10;2.67;;;27.70;58.20;;;;;;5046919;28;20056;-63
2023/08/26 09:42:42;;;;;;;5.15;2.22;;;27.70;57.50;;;;;;5048781;28;20037;-63
2023/08/26 09:45:13;;;;;;;5.30;2.05;;;27.70;57.40;;;;;;5053688;28;20032;-64
2023/08/26 09:47:39;;;;;;;6.28;1.90;;;27.70;57.40;;;;;;5048278;28;20487;-64
2023/08/26 09:50:06;;;;;;;5.45;2.00;;;27.60;56.70;;;;;;5045712;28;20040;-63
2023/08/26 09:52:50;;;;;;;6.00;2.28;;;27.60;56.50;;;;;;5041434;28;20047;-63
2023/08/26 09:55:16;;;;;;;5.85;2.05;;;27.60;54.90;;;;;;5052108;28;20529;-63
2023/08/26 09:57:43;;;;;;;7.55;2.33;;;27.50;56.00;;;;;;5048926;28;20384;-64
2023/08/26 10:00:12;;;;;;;6.63;2.22;;;27.40;55.40;;;;;;5046746;28;20029;-65
2023/08/26 10:02:45;;;;;;;8.55;2.40;;;27.30;55.60;;;;;;5050252;28;20044;-64
2023/08/26 10:05:20;;;;;;;8.02;2.33;;;27.20;55.70;;;;;;5043464;28;20028;-64
2023/08/26 10:07:51;;;;;;;3.38;2.00;;;27.10;55.90;;;;;;5048022;28;20071;-63
2023/08/26 10:10:45;;;;;;;6.60;2.30;;;27.00;56.50;;;;;;5045838;28;20122;-63
2023/08/26 10:13:12;;;;;;;6.93;2.95;;;27.00;56.20;;;;;;5049088;28;20028;-63
2023/08/26 10:15:38;;;;;;;5.85;2.47;;;27.00;56.90;;;;;;5049678;28;20036;-63
2023/08/26 10:18:18;;;;;;;6.38;2.80;;;26.90;56.70;;;;;;5047884;28;20111;-63
2023/08/26 10:20:45;;;;;;;8.10;3.33;;;26.90;56.10;;;;;;5049213;28;20027;-63
2023/08/26 10:23:12;;;;;;;6.18;2.53;;;26.90;57.20;;;;;;5040924;28;20029;-64
2023/08/26 10:25:38;;;;;;;4.13;2.03;;;26.90;57.30;;;;;;5056560;28;20037;-63
2023/08/26 10:28:05;;;;;;;6.30;2.33;;;27.00;57.60;;;;;;5051685;28;20475;-63
2023/08/26 10:30:31;;;;;;;8.70;1.88;;;27.10;57.10;;;;;;5038019;28;20039;-63
2023/08/26 10:33:03;;;;;;;4.13;2.10;;;27.30;56.60;;;;;;5042909;28;20044;-63
2023/08/26 10:35:29;;;;;;;4.22;2.20;;;27.40;56.10;;;;;;5046715;28;20021;-62
2023/08/26 10:38:08;;;;;;;5.65;2.63;;;27.60;55.60;;;;;;5048485;28;20078;-63
2023/08/26 10:40:33;;;;;;;4.40;1.80;;;27.60;55.00;;;;;;5049211;28;20036;-63
2023/08/26 10:43:07;;;;;;;5.15;2.30;;;27.70;55.80;;;;;;5048005;28;20025;-63
2023/08/26 10:45:33;;;;;;;4.47;1.98;;;27.70;54.70;;;;;;5046662;28;20021;-65
2023/08/26 10:48:00;;;;;;;9.10;2.17;;;27.70;55.90;;;;;;5044289;28;20513;-63
2023/08/26 10:50:27;;;;;;;5.93;2.08;;;27.70;55.40;;;;;;5047094;28;20024;-64
2023/08/26 10:52:56;;;;;;;7.32;2.15;;;27.80;55.10;;;;;;5049477;28;20029;-63
2023/08/26 10:55:33;;;;;;;5.13;1.95;;;27.80;54.70;;;;;;5048515;28;20029;-64
2023/08/26 10:58:12;;;;;;;5.53;2.40;;;27.80;53.70;;;;;;5050833;28;20110;-63
2023/08/26 11:00:40;;;;;;;3.17;2.13;;;27.80;54.00;;;;;;5046900;28;20043;-63
2023/08/26 11:03:11;;;;;;;3.05;1.73;;;27.80;54.20;;;;;;5039164;28;20372;-63
2023/08/26 11:05:37;;;;;;;4.93;1.88;;;27.70;54.50;;;;;;5046048;28;20067;-63
2023/08/26 11:08:04;;;;;;;11.55;2.25;;;27.60;54.00;;;;;;5049176;28;20029;-63
2023/08/26 11:10:40;;;;;;;5.93;2.08;;;27.60;54.60;;;;;;5046239;28;20104;-64
2023/08/26 11:13:07;;;;;;;6.43;2.20;;;27.50;54.10;;;;;;5036388;28;20025;-63
2023/08/26 11:15:38;;;;;;;7.70;3.13;;;27.60;54.80;;;;;;5050661;28;20032;-65
2023/08/26 11:18:05;;;;;;;7.13;2.58;;;27.50;54.60;;;;;;5045607;28;20039;-63
2023/08/26 11:20:31;;;;;;;6.20;2.35;;;27.60;55.00;;;;;;5048560;28;20029;-63
2023/08/26 11:22:57;;;;;;;5.60;2.25;;;27.60;55.10;;;;;;5045907;28;20423;-63
2023/08/26 11:25:23;;;;;;;7.43;2.40;;;27.60;54.80;;;;;;5046360;28;20029;-63
2023/08/26 11:27:50;;;;;;;5.00;2.40;;;27.70;54.60;;;;;;5050343;28;20463;-63
2023/08/26 11:30:16;;;;;;;11.43;2.58;;;27.70;54.30;;;;;;5042901;28;20185;-63
2023/08/26 11:32:41;;;;;;;10.23;2.10;;;27.70;54.10;;;;;;5043124;28;20029;-64
2023/08/26 11:35:09;;;;;;;6.97;2.53;;;27.60;54.40;;;;;;5044752;28;20056;-63
2023/08/26 11:37:56;;;;;;;5.03;2.10;;;27.60;54.60;;;;;;5047442;28;20120;-63
2023/08/26 11:40:23;;;;;;;8.75;2.20;;;27.60;54.90;;;;;;5037966;28;20041;-63
2023/08/26 11:42:48;;;;;;;5.35;2.55;;;27.60;56.10;;;;;;5049209;28;20361;-63
2023/08/26 11:45:14;;;;;;;6.40;2.72;;;27.60;55.30;;;;;;5054359;28;20036;-63
2023/08/26 11:47:40;;;;;;;5.32;2.20;;;27.60;54.90;;;;;;5045808;28;20036;-63
2023/08/26 11:50:06;;;;;;;4.10;2.15;;;27.60;54.90;;;;;;5046171;28;20594;-63
2023/08/26 11:52:37;;;;;;;6.07;2.30;;;27.60;54.70;;;;;;5042458;28;20051;-62
2023/08/26 11:55:04;;;;;;;6.43;2.67;;;27.60;54.70;;;;;;5046072;28;20071;-64
2023/08/26 11:57:37;;;;;;;4.75;2.40;;;27.60;54.30;;;;;;5045903;28;20045;-63
2023/08/26 12:00:16;;;;;;;5.75;2.40;;;27.50;54.20;;;;;;5044461;28;20029;-62
2023/08/26 12:02:52;;;;;;;5.55;2.35;;;27.50;54.50;;;;;;5041634;28;20584;-62
2023/08/26 12:05:19;;;;;;;5.75;2.78;;;27.50;55.30;;;;;;5041504;28;20025;-63
2023/08/26 12:07:49;;;;;;;6.53;2.45;;;27.50;55.00;;;;;;5046652;28;20025;-63
2023/08/26 12:10:17;;;;;;;3.58;2.10;;;27.50;55.00;;;;;;5043339;28;20049;-63
2023/08/26 12:12:47;;;;;;;6.30;2.40;;;27.50;54.90;;;;;;5042141;28;20513;-63
2023/08/26 12:15:19;;;;;;;5.60;2.33;;;27.50;54.60;;;;;;5042361;28;20033;-62
2023/08/26 12:17:50;;;;;;;6.82;2.40;;;27.50;54.20;;;;;;5052118;28;20129;-64
2023/08/26 12:20:30;;;;;;;5.28;2.20;;;27.60;54.10;;;;;;5038713;28;20586;-63
2023/08/26 12:22:59;;;;;;;6.75;2.30;;;27.50;53.60;;;;;;5045483;28;20037;-63
2023/08/26 12:25:41;;;;;;;7.30;2.42;;;27.40;54.00;;;;;;5053283;28;20021;-62
2023/08/26 12:28:17;;;;;;;6.93;2.28;;;27.20;53.80;;;;;;5049410;28;20037;-62
2023/08/26 12:30:45;;;;;;;7.97;2.50;;;27.20;54.80;;;;;;5042950;28;20032;-63
2023/08/26 12:33:12;;;;;;;8.20;2.78;;;27.10;55.00;;;;;;5036963;28;20047;-63
2023/08/26 12:35:38;;;;;;;6.72;2.67;;;27.00;55.00;;;;;;5052710;28;20078;-62
2023/08/26 12:38:05;;;;;;;4.15;2.47;;;26.90;55.40;;;;;;5041146;28;20036;-62
2023/08/26 12:40:36;;;;;;;4.47;2.20;;;26.80;55.40;;;;;;5042737;28;20024;-62
2023/08/26 12:43:06;;;;;;;4.72;2.35;;;26.70;55.60;;;;;;5041181;28;20056;-62
2023/08/26 12:45:34;;;;;;;5.82;2.50;;;26.60;55.60;;;;;;5038142;28;20021;-62